sensor_id;sensor_type;location;lat;lon;timestamp;pressure;altitude;pressure_sealevel;temperature;humidity
26563;BME280;14217;50.986;5.826;2023-04-03T00:01:59;102231.75;;;18.54;43.71
26563;BME280;14217;50.986;5.826;2023-04-03T00:07:01;102237.91;;;18.56;43.75
26563;BME280;14217;50.986;5.826;2023-04-03T00:12:04;102237.88;;;18.58;43.81
26563;BME280;14217;50.986;5.826;2023-04-03T00:17:06;102240.66;;;18.52;43.81
26563;BME280;14217;50.986;5.826;2023-04-03T00:22:09;102237.06;;;18.54;43.86
26563;BME280;14217;50.986;5.826;2023-04-03T00:27:11;102233.56;;;18.52;43.86
26563;BME280;14217;50.986;5.826;2023-04-03T00:32:13;102234.44;;;18.53;43.88
26563;BME280;14217;50.986;5.826;2023-04-03T00:37:15;102229.19;;;18.51;43.50
26563;BME280;14217;50.986;5.826;2023-04-03T00:42:17;102237.19;;;18.49;43.56
26563;BME280;14217;50.986;5.826;2023-04-03T00:47:19;102241.47;;;18.55;43.43
26563;BME280;14217;50.986;5.826;2023-04-03T00:52:25;102234.44;;;18.53;43.71
26563;BME280;14217;50.986;5.826;2023-04-03T00:57:28;102230.06;;;18.52;43.55
26563;BME280;14217;50.986;5.826;2023-04-03T01:02:32;102235.34;;;18.53;43.67
26563;BME280;14217;50.986;5.826;2023-04-03T01:07:34;102238.00;;;18.52;43.39
26563;BME280;14217;50.986;5.826;2023-04-03T01:12:40;102248.75;;;18.47;43.46
26563;BME280;14217;50.986;5.826;2023-04-03T01:17:52;102244.31;;;18.46;43.51
26563;BME280;14217;50.986;5.826;2023-04-03T01:28:19;102254.00;;;18.48;43.52
26563;BME280;14217;50.986;5.826;2023-04-03T01:33:22;102249.66;;;18.44;43.59
26563;BME280;14217;50.986;5.826;2023-04-03T01:38:24;102260.31;;;18.43;43.56
26563;BME280;14217;50.986;5.826;2023-04-03T01:43:27;102258.50;;;18.45;43.44
26563;BME280;14217;50.986;5.826;2023-04-03T01:48:29;102251.44;;;18.44;43.63
26563;BME280;14217;50.986;5.826;2023-04-03T01:53:31;102255.03;;;18.41;43.44
26563;BME280;14217;50.986;5.826;2023-04-03T01:58:33;102257.69;;;18.41;43.48
26563;BME280;14217;50.986;5.826;2023-04-03T02:03:35;102257.59;;;18.46;43.64
26563;BME280;14217;50.986;5.826;2023-04-03T02:08:37;102255.03;;;18.41;43.47
26563;BME280;14217;50.986;5.826;2023-04-03T02:13:39;102260.31;;;18.43;43.75
26563;BME280;14217;50.986;5.826;2023-04-03T02:18:42;102269.19;;;18.42;43.63
26563;BME280;14217;50.986;5.826;2023-04-03T02:23:44;102262.19;;;18.38;43.69
26563;BME280;14217;50.986;5.826;2023-04-03T02:28:46;102260.34;;;18.41;43.54
26563;BME280;14217;50.986;5.826;2023-04-03T02:33:48;102260.38;;;18.40;43.51
26563;BME280;14217;50.986;5.826;2023-04-03T02:38:50;102266.56;;;18.40;43.70
26563;BME280;14217;50.986;5.826;2023-04-03T02:43:52;102265.78;;;18.35;43.77
26563;BME280;14217;50.986;5.826;2023-04-03T02:48:54;102259.53;;;18.38;43.54
26563;BME280;14217;50.986;5.826;2023-04-03T02:53:56;102258.69;;;18.36;43.42
26563;BME280;14217;50.986;5.826;2023-04-03T02:58:58;102260.41;;;18.38;43.64
26563;BME280;14217;50.986;5.826;2023-04-03T03:04:01;102264.91;;;18.36;43.59
26563;BME280;14217;50.986;5.826;2023-04-03T03:09:03;102266.59;;;18.39;43.38
26563;BME280;14217;50.986;5.826;2023-04-03T03:14:06;102265.88;;;18.32;43.57
26563;BME280;14217;50.986;5.826;2023-04-03T03:19:08;102272.84;;;18.36;43.54
26563;BME280;14217;50.986;5.826;2023-04-03T03:24:11;102271.06;;;18.37;43.54
26563;BME280;14217;50.986;5.826;2023-04-03T03:29:13;102272.91;;;18.33;43.64
26563;BME280;14217;50.986;5.826;2023-04-03T03:34:15;102277.31;;;18.34;43.23
26563;BME280;14217;50.986;5.826;2023-04-03T03:39:17;102277.31;;;18.34;43.37
26563;BME280;14217;50.986;5.826;2023-04-03T03:44:20;102274.72;;;18.31;43.36
26563;BME280;14217;50.986;5.826;2023-04-03T03:49:22;102280.03;;;18.29;43.38
26563;BME280;14217;50.986;5.826;2023-04-03T03:54:24;102270.25;;;18.33;43.28
26563;BME280;14217;50.986;5.826;2023-04-03T03:59:26;102275.56;;;18.33;43.22
26563;BME280;14217;50.986;5.826;2023-04-03T04:04:28;102277.38;;;18.31;43.33
26563;BME280;14217;50.986;5.826;2023-04-03T04:09:30;102279.19;;;18.27;43.70
26563;BME280;14217;50.986;5.826;2023-04-03T04:14:32;102280.94;;;18.30;43.29
26563;BME280;14217;50.986;5.826;2023-04-03T04:19:34;102272.19;;;18.25;43.39
26563;BME280;14217;50.986;5.826;2023-04-03T04:24:37;102287.13;;;18.29;43.31
26563;BME280;14217;50.986;5.826;2023-04-03T04:29:40;102286.19;;;18.32;43.47
26563;BME280;14217;50.986;5.826;2023-04-03T04:34:42;102277.44;;;18.28;43.45
26563;BME280;14217;50.986;5.826;2023-04-03T04:39:44;102288.09;;;18.25;43.31
26563;BME280;14217;50.986;5.826;2023-04-03T04:44:46;102279.19;;;18.29;43.19
26563;BME280;14217;50.986;5.826;2023-04-03T04:49:48;102286.28;;;18.28;43.44
26563;BME280;14217;50.986;5.826;2023-04-03T04:54:50;102309.28;;;18.28;43.24
26563;BME280;14217;50.986;5.826;2023-04-03T04:59:52;102311.88;;;18.29;43.32
26563;BME280;14217;50.986;5.826;2023-04-03T05:04:54;102312.84;;;18.25;43.26
26563;BME280;14217;50.986;5.826;2023-04-03T05:09:56;102320.81;;;18.25;43.41
26563;BME280;14217;50.986;5.826;2023-04-03T05:14:58;102314.66;;;18.23;43.23
26563;BME280;14217;50.986;5.826;2023-04-03T05:20:00;102324.38;;;18.26;43.08
26563;BME280;14217;50.986;5.826;2023-04-03T05:25:02;102321.72;;;18.24;43.26
26563;BME280;14217;50.986;5.826;2023-04-03T05:30:05;102328.78;;;18.25;43.22
26563;BME280;14217;50.986;5.826;2023-04-03T05:35:07;102330.59;;;18.23;43.39
26563;BME280;14217;50.986;5.826;2023-04-03T05:40:10;102331.53;;;18.21;43.10
26563;BME280;14217;50.986;5.826;2023-04-03T05:45:12;102337.75;;;18.20;43.19
26563;BME280;14217;50.986;5.826;2023-04-03T05:50:14;102338.59;;;18.22;43.04
26563;BME280;14217;50.986;5.826;2023-04-03T05:55:16;102342.13;;;18.22;42.89
26563;BME280;14217;50.986;5.826;2023-04-03T06:00:18;102343.91;;;18.20;43.17
26563;BME280;14217;50.986;5.826;2023-04-03T06:05:20;102340.41;;;18.20;43.15
26563;BME280;14217;50.986;5.826;2023-04-03T06:10:22;102352.94;;;18.12;42.51
26563;BME280;14217;50.986;5.826;2023-04-03T06:15:25;102349.59;;;18.00;41.64
26563;BME280;14217;50.986;5.826;2023-04-03T06:20:27;102360.13;;;18.05;42.41
26563;BME280;14217;50.986;5.826;2023-04-03T06:25:29;102357.53;;;18.02;42.00
26563;BME280;14217;50.986;5.826;2023-04-03T06:30:31;102354.88;;;18.00;42.10
26563;BME280;14217;50.986;5.826;2023-04-03T06:35:33;102357.53;;;18.00;41.61
26563;BME280;14217;50.986;5.826;2023-04-03T06:40:36;102359.31;;;18.01;41.16
26563;BME280;14217;50.986;5.826;2023-04-03T06:45:39;102363.75;;;18.01;41.46
26563;BME280;14217;50.986;5.826;2023-04-03T06:50:41;102358.25;;;18.10;42.48
26563;BME280;14217;50.986;5.826;2023-04-03T06:55:43;102366.50;;;18.43;42.31
26563;BME280;14217;50.986;5.826;2023-04-03T07:00:45;102376.75;;;18.60;42.80
26563;BME280;14217;50.986;5.826;2023-04-03T07:05:48;102391.66;;;18.67;42.20
26563;BME280;14217;50.986;5.826;2023-04-03T07:10:51;102377.53;;;18.65;41.85
26563;BME280;14217;50.986;5.826;2023-04-03T07:15:53;102387.19;;;18.69;42.64
26563;BME280;14217;50.986;5.826;2023-04-03T07:20:55;102395.91;;;18.76;43.09
26563;BME280;14217;50.986;5.826;2023-04-03T07:25:57;102396.66;;;18.84;42.40
26563;BME280;14217;50.986;5.826;2023-04-03T07:31:05;102402.53;;;18.98;41.94
26563;BME280;14217;50.986;5.826;2023-04-03T07:36:09;102411.38;;;18.99;41.84
26563;BME280;14217;50.986;5.826;2023-04-03T07:41:16;102403.50;;;18.96;41.44
26563;BME280;14217;50.986;5.826;2023-04-03T07:46:19;102403.16;;;19.09;41.04
26563;BME280;14217;50.986;5.826;2023-04-03T07:51:22;102399.88;;;19.00;41.08
26563;BME280;14217;50.986;5.826;2023-04-03T07:56:26;102405.03;;;18.62;41.79
26563;BME280;14217;50.986;5.826;2023-04-03T08:01:28;102403.66;;;18.43;42.42
26563;BME280;14217;50.986;5.826;2023-04-03T08:06:31;102411.56;;;18.44;42.36
26563;BME280;14217;50.986;5.826;2023-04-03T08:11:46;102403.78;;;18.35;42.39
26563;BME280;14217;50.986;5.826;2023-04-03T08:16:48;102408.09;;;18.41;42.02
26563;BME280;14217;50.986;5.826;2023-04-03T08:21:50;102409.94;;;18.37;42.02
26563;BME280;14217;50.986;5.826;2023-04-03T08:26:52;102408.09;;;18.41;42.02
26563;BME280;14217;50.986;5.826;2023-04-03T08:31:55;102422.28;;;18.38;42.01
26563;BME280;14217;50.986;5.826;2023-04-03T08:36:57;102420.47;;;18.40;41.02
26563;BME280;14217;50.986;5.826;2023-04-03T08:42:02;102427.78;;;18.29;41.25
26563;BME280;14217;50.986;5.826;2023-04-03T08:52:39;102424.38;;;18.21;40.89
26563;BME280;14217;50.986;5.826;2023-04-03T08:57:45;102423.50;;;18.22;40.79
26563;BME280;14217;50.986;5.826;2023-04-03T09:02:50;102424.34;;;18.24;40.99
26563;BME280;14217;50.986;5.826;2023-04-03T09:13:24;102422.66;;;18.20;40.90
26563;BME280;14217;50.986;5.826;2023-04-03T09:18:37;102418.22;;;18.20;40.71
26563;BME280;14217;50.986;5.826;2023-04-03T09:23:45;102420.03;;;18.17;40.99
26563;BME280;14217;50.986;5.826;2023-04-03T09:28:48;102418.13;;;18.25;40.71
26563;BME280;14217;50.986;5.826;2023-04-03T09:33:59;102410.22;;;18.22;40.63
26563;BME280;14217;50.986;5.826;2023-04-03T09:39:14;102405.03;;;18.16;40.60
26563;BME280;14217;50.986;5.826;2023-04-03T09:44:23;102405.88;;;18.18;40.24
26563;BME280;14217;50.986;5.826;2023-04-03T09:49:27;102399.09;;;18.01;40.48
26563;BME280;14217;50.986;5.826;2023-04-03T09:54:37;102392.75;;;18.08;40.20
26563;BME280;14217;50.986;5.826;2023-04-03T09:59:57;102406.28;;;17.96;40.43
26563;BME280;14217;50.986;5.826;2023-04-03T10:05:01;102399.09;;;18.01;40.16
26563;BME280;14217;50.986;5.826;2023-04-03T10:10:19;102394.84;;;17.93;40.11
26563;BME280;14217;50.986;5.826;2023-04-03T10:15:22;102399.16;;;17.98;40.18
26563;BME280;14217;50.986;5.826;2023-04-03T10:25:39;102401.88;;;18.42;39.43
26563;BME280;14217;50.986;5.826;2023-04-03T10:46:48;102366.03;;;18.64;37.78
26563;BME280;14217;50.986;5.826;2023-04-03T10:52:00;102364.22;;;18.68;37.61
26563;BME280;14217;50.986;5.826;2023-04-03T10:57:10;102363.41;;;18.63;37.78
26563;BME280;14217;50.986;5.826;2023-04-03T11:07:49;102343.94;;;18.64;37.94
26563;BME280;14217;50.986;5.826;2023-04-03T11:12:58;102332.47;;;18.62;37.84
26563;BME280;14217;50.986;5.826;2023-04-03T11:18:10;102343.97;;;18.62;37.77
26563;BME280;14217;50.986;5.826;2023-04-03T11:23:26;102341.19;;;18.68;37.64
26563;BME280;14217;50.986;5.826;2023-04-03T11:28:39;102335.88;;;18.68;37.48
26563;BME280;14217;50.986;5.826;2023-04-03T11:38:53;102326.28;;;18.61;37.76
26563;BME280;14217;50.986;5.826;2023-04-03T11:44:02;102321.94;;;18.57;37.55
26563;BME280;14217;50.986;5.826;2023-04-03T11:49:04;102307.75;;;18.58;37.56
26563;BME280;14217;50.986;5.826;2023-04-03T11:54:43;102313.16;;;18.55;37.66
26563;BME280;14217;50.986;5.826;2023-04-03T11:59:46;102299.81;;;18.57;37.80
26563;BME280;14217;50.986;5.826;2023-04-03T12:05:24;102299.91;;;18.54;37.73
26563;BME280;14217;50.986;5.826;2023-04-03T12:10:27;102292.81;;;18.54;37.60
26563;BME280;14217;50.986;5.826;2023-04-03T12:25:59;102283.13;;;18.53;37.23
26563;BME280;14217;50.986;5.826;2023-04-03T12:31:04;102276.88;;;18.54;37.50
26563;BME280;14217;50.986;5.826;2023-04-03T12:36:12;102274.22;;;18.54;37.44
26563;BME280;14217;50.986;5.826;2023-04-03T12:41:27;102260.97;;;18.53;37.31
26563;BME280;14217;50.986;5.826;2023-04-03T12:46:43;102261.94;;;18.50;37.38
26563;BME280;14217;50.986;5.826;2023-04-03T12:51:46;102252.16;;;18.52;37.58
26563;BME280;14217;50.986;5.826;2023-04-03T12:56:49;102245.13;;;18.49;37.54
26563;BME280;14217;50.986;5.826;2023-04-03T13:02:02;102247.78;;;18.49;37.26
26563;BME280;14217;50.986;5.826;2023-04-03T13:07:04;102236.31;;;18.49;37.32
26563;BME280;14217;50.986;5.826;2023-04-03T13:12:12;102227.41;;;18.50;37.34
26563;BME280;14217;50.986;5.826;2023-04-03T13:17:16;102234.53;;;18.49;37.13
26563;BME280;14217;50.986;5.826;2023-04-03T13:22:32;102231.84;;;18.51;37.03
26563;BME280;14217;50.986;5.826;2023-04-03T13:27:35;102223.91;;;18.49;36.79
26563;BME280;14217;50.986;5.826;2023-04-03T13:32:38;102225.56;;;18.55;36.59
26563;BME280;14217;50.986;5.826;2023-04-03T13:37:54;102216.03;;;18.45;37.05
26563;BME280;14217;50.986;5.826;2023-04-03T13:43:18;102216.06;;;18.43;36.84
26563;BME280;14217;50.986;5.826;2023-04-03T13:48:20;102216.03;;;18.45;36.62
26563;BME280;14217;50.986;5.826;2023-04-03T13:53:26;102216.91;;;18.45;36.50
26563;BME280;14217;50.986;5.826;2023-04-03T13:58:32;102209.81;;;18.46;36.49
26563;BME280;14217;50.986;5.826;2023-04-03T14:03:51;102213.41;;;18.43;36.09
26563;BME280;14217;50.986;5.826;2023-04-03T14:08:53;102203.66;;;18.44;35.76
26563;BME280;14217;50.986;5.826;2023-04-03T14:13:57;102201.09;;;18.41;35.98
26563;BME280;14217;50.986;5.826;2023-04-03T14:19:02;102194.81;;;18.45;36.16
26563;BME280;14217;50.986;5.826;2023-04-03T14:24:04;102185.09;;;18.44;35.87
26563;BME280;14217;50.986;5.826;2023-04-03T14:29:09;102181.50;;;18.46;36.09
26563;BME280;14217;50.986;5.826;2023-04-03T14:34:13;102170.03;;;18.44;36.04
26563;BME280;14217;50.986;5.826;2023-04-03T14:39:18;102168.28;;;18.45;35.90
26563;BME280;14217;50.986;5.826;2023-04-03T14:44:20;102160.25;;;18.46;35.87
26563;BME280;14217;50.986;5.826;2023-04-03T14:49:25;102155.91;;;18.44;35.80
26563;BME280;14217;50.986;5.826;2023-04-03T14:54:29;102158.56;;;18.42;36.22
26563;BME280;14217;50.986;5.826;2023-04-03T14:59:31;102149.78;;;18.40;36.05
26563;BME280;14217;50.986;5.826;2023-04-03T15:04:34;102145.38;;;18.41;36.09
26563;BME280;14217;50.986;5.826;2023-04-03T15:09:36;102141.88;;;18.39;36.16
26563;BME280;14217;50.986;5.826;2023-04-03T15:14:38;102147.22;;;18.37;35.94
26563;BME280;14217;50.986;5.826;2023-04-03T15:19:54;102153.44;;;18.36;36.36
26563;BME280;14217;50.986;5.826;2023-04-03T15:24:56;102163.03;;;18.40;35.95
26563;BME280;14217;50.986;5.826;2023-04-03T15:29:58;102153.34;;;18.39;35.70
26563;BME280;14217;50.986;5.826;2023-04-03T15:35:01;102154.19;;;18.41;35.98
26563;BME280;14217;50.986;5.826;2023-04-03T15:40:05;102157.69;;;18.43;36.09
26563;BME280;14217;50.986;5.826;2023-04-03T15:45:08;102156.84;;;18.41;36.03
26563;BME280;14217;50.986;5.826;2023-04-03T15:50:10;102160.47;;;18.37;36.14
26563;BME280;14217;50.986;5.826;2023-04-03T15:55:12;102150.78;;;18.36;36.07
26563;BME280;14217;50.986;5.826;2023-04-03T16:00:14;102147.22;;;18.37;35.83
26563;BME280;14217;50.986;5.826;2023-04-03T16:05:18;102154.22;;;18.40;35.76
26563;BME280;14217;50.986;5.826;2023-04-03T16:10:20;102146.38;;;18.35;35.61
26563;BME280;14217;50.986;5.826;2023-04-03T16:15:23;102148.19;;;18.33;35.30
26563;BME280;14217;50.986;5.826;2023-04-03T16:20:26;102151.59;;;18.38;35.16
26563;BME280;14217;50.986;5.826;2023-04-03T16:25:29;102149.88;;;18.37;35.26
26563;BME280;14217;50.986;5.826;2023-04-03T16:30:33;102155.16;;;18.37;34.91
26563;BME280;14217;50.986;5.826;2023-04-03T16:35:35;102157.00;;;18.35;34.98
26563;BME280;14217;50.986;5.826;2023-04-03T16:40:38;102162.28;;;18.35;35.05
26563;BME280;14217;50.986;5.826;2023-04-03T16:45:40;102161.47;;;18.33;34.59
26563;BME280;14217;50.986;5.826;2023-04-03T16:50:46;102172.91;;;18.35;34.58
26563;BME280;14217;50.986;5.826;2023-04-03T16:55:50;102173.84;;;18.33;34.63
26563;BME280;14217;50.986;5.826;2023-04-03T17:00:52;102187.16;;;18.31;34.64
26563;BME280;14217;50.986;5.826;2023-04-03T17:05:55;102196.78;;;18.35;34.50
26563;BME280;14217;50.986;5.826;2023-04-03T17:10:58;102193.31;;;18.33;33.90
26563;BME280;14217;50.986;5.826;2023-04-03T17:16:02;102188.00;;;18.33;34.09
26563;BME280;14217;50.986;5.826;2023-04-03T17:21:06;102178.22;;;18.35;34.19
26563;BME280;14217;50.986;5.826;2023-04-03T17:26:09;102188.84;;;18.35;34.49
26563;BME280;14217;50.986;5.826;2023-04-03T17:31:11;102175.69;;;18.31;34.69
26563;BME280;14217;50.986;5.826;2023-04-03T17:36:13;102182.78;;;18.30;34.94
26563;BME280;14217;50.986;5.826;2023-04-03T17:41:15;102180.13;;;18.30;34.84
26563;BME280;14217;50.986;5.826;2023-04-03T17:46:18;102188.00;;;18.33;34.62
26563;BME280;14217;50.986;5.826;2023-04-03T17:51:21;102192.47;;;18.31;34.78
26563;BME280;14217;50.986;5.826;2023-04-03T17:56:25;102190.84;;;18.24;35.10
26563;BME280;14217;50.986;5.826;2023-04-03T18:01:29;102195.91;;;18.36;35.13
26563;BME280;14217;50.986;5.826;2023-04-03T18:06:37;102193.94;;;18.04;34.99
26563;BME280;14217;50.986;5.826;2023-04-03T18:11:41;102195.75;;;18.00;33.64
26563;BME280;14217;50.986;5.826;2023-04-03T18:16:44;102198.38;;;18.03;33.74
26563;BME280;14217;50.986;5.826;2023-04-03T18:21:46;102197.66;;;17.94;33.93
26563;BME280;14217;50.986;5.826;2023-04-03T18:26:58;102203.78;;;17.99;35.57
26563;BME280;14217;50.986;5.826;2023-04-03T18:32:02;102199.13;;;18.08;36.71
26563;BME280;14217;50.986;5.826;2023-04-03T18:37:07;102204.50;;;18.05;36.36
26563;BME280;14217;50.986;5.826;2023-04-03T18:42:12;102204.84;;;18.32;36.07
26563;BME280;14217;50.986;5.826;2023-04-03T18:47:15;102201.13;;;18.39;35.91
26563;BME280;14217;50.986;5.826;2023-04-03T18:52:17;102210.66;;;18.07;36.72
26563;BME280;14217;50.986;5.826;2023-04-03T18:57:21;102213.59;;;18.36;35.56
26563;BME280;14217;50.986;5.826;2023-04-03T19:02:23;102203.88;;;18.36;35.04
26563;BME280;14217;50.986;5.826;2023-04-03T19:07:27;102219.00;;;18.31;34.61
26563;BME280;14217;50.986;5.826;2023-04-03T19:12:29;102218.88;;;18.36;36.01
26563;BME280;14217;50.986;5.826;2023-04-03T19:17:31;102228.53;;;18.40;35.69
26563;BME280;14217;50.986;5.826;2023-04-03T19:22:33;102217.19;;;18.33;35.90
26563;BME280;14217;50.986;5.826;2023-04-03T19:27:36;102224.09;;;18.40;36.02
26563;BME280;14217;50.986;5.826;2023-04-03T19:32:39;102228.63;;;18.35;36.06
26563;BME280;14217;50.986;5.826;2023-04-03T19:37:41;102231.28;;;18.35;36.32
26563;BME280;14217;50.986;5.826;2023-04-03T19:42:43;102225.97;;;18.35;36.42
26563;BME280;14217;50.986;5.826;2023-04-03T19:47:45;102228.59;;;18.37;36.16
26563;BME280;14217;50.986;5.826;2023-04-03T19:52:48;102227.75;;;18.36;36.48
26563;BME280;14217;50.986;5.826;2023-04-03T19:57:50;102228.56;;;18.38;36.47
26563;BME280;14217;50.986;5.826;2023-04-03T20:02:53;102237.44;;;18.37;36.51
26563;BME280;14217;50.986;5.826;2023-04-03T20:07:55;102243.66;;;18.36;36.36
26563;BME280;14217;50.986;5.826;2023-04-03T20:12:57;102240.31;;;18.28;39.73
26563;BME280;14217;50.986;5.826;2023-04-03T20:17:59;102242.88;;;18.31;40.09
26563;BME280;14217;50.986;5.826;2023-04-03T20:23:02;102240.72;;;18.06;39.87
26563;BME280;14217;50.986;5.826;2023-04-03T20:28:04;102247.09;;;17.98;39.80
26563;BME280;14217;50.986;5.826;2023-04-03T20:33:06;102244.19;;;18.12;39.15
26563;BME280;14217;50.986;5.826;2023-04-03T20:38:08;102249.59;;;18.05;39.27
26563;BME280;14217;50.986;5.826;2023-04-03T20:43:11;102255.88;;;18.01;39.83
26563;BME280;14217;50.986;5.826;2023-04-03T20:48:13;102247.03;;;18.01;40.08
26563;BME280;14217;50.986;5.826;2023-04-03T20:53:15;102246.81;;;18.12;40.25
26563;BME280;14217;50.986;5.826;2023-04-03T20:58:19;102238.28;;;17.96;40.38
26563;BME280;14217;50.986;5.826;2023-04-03T21:03:22;102242.41;;;18.11;41.50
26563;BME280;14217;50.986;5.826;2023-04-03T21:19:49;102242.97;;;18.26;40.34
26563;BME280;14217;50.986;5.826;2023-04-03T21:24:51;102244.44;;;18.40;39.88
26563;BME280;14217;50.986;5.826;2023-04-03T21:29:53;102248.75;;;18.45;39.68
26563;BME280;14217;50.986;5.826;2023-04-03T21:34:57;102251.41;;;18.45;39.48
26563;BME280;14217;50.986;5.826;2023-04-03T21:39:59;102247.94;;;18.43;39.32
26563;BME280;14217;50.986;5.826;2023-04-03T21:45:01;102239.09;;;18.43;39.01
26563;BME280;14217;50.986;5.826;2023-04-03T21:50:03;102249.72;;;18.43;39.04
26563;BME280;14217;50.986;5.826;2023-04-03T21:55:06;102253.28;;;18.40;39.21
26563;BME280;14217;50.986;5.826;2023-04-03T22:00:09;102263.94;;;18.39;39.21
26563;BME280;14217;50.986;5.826;2023-04-03T22:05:11;102263.00;;;18.41;38.89
26563;BME280;14217;50.986;5.826;2023-04-03T22:10:13;102271.91;;;18.39;39.01
26563;BME280;14217;50.986;5.826;2023-04-03T22:15:16;102268.31;;;18.41;38.56
26563;BME280;14217;50.986;5.826;2023-04-03T22:20:18;102272.81;;;18.38;38.65
26563;BME280;14217;50.986;5.826;2023-04-03T22:25:21;102264.91;;;18.36;38.61
26563;BME280;14217;50.986;5.826;2023-04-03T22:30:23;102257.81;;;18.35;38.75
26563;BME280;14217;50.986;5.826;2023-04-03T22:35:25;102257.91;;;18.32;38.55
26563;BME280;14217;50.986;5.826;2023-04-03T22:40:28;102251.75;;;18.30;38.73
26563;BME280;14217;50.986;5.826;2023-04-03T22:45:30;102242.03;;;18.29;38.92
26563;BME280;14217;50.986;5.826;2023-04-03T22:50:32;102226.06;;;18.32;38.74
26563;BME280;14217;50.986;5.826;2023-04-03T22:55:37;102218.94;;;18.34;38.55
26563;BME280;14217;50.986;5.826;2023-04-03T23:00:40;102215.59;;;18.26;38.95
26563;BME280;14217;50.986;5.826;2023-04-03T23:05:42;102212.88;;;18.27;38.70
26563;BME280;14217;50.986;5.826;2023-04-03T23:10:44;102215.47;;;18.31;38.86
26563;BME280;14217;50.986;5.826;2023-04-03T23:15:54;102224.31;;;18.31;38.57
26563;BME280;14217;50.986;5.826;2023-04-03T23:21:00;102234.03;;;18.31;38.48
26563;BME280;14217;50.986;5.826;2023-04-03T23:26:02;102234.03;;;18.31;38.65
26563;BME280;14217;50.986;5.826;2023-04-03T23:31:04;102232.28;;;18.29;38.68
26563;BME280;14217;50.986;5.826;2023-04-03T23:36:11;102231.41;;;18.29;38.73
26563;BME280;14217;50.986;5.826;2023-04-03T23:41:14;102230.56;;;18.27;38.79
26563;BME280;14217;50.986;5.826;2023-04-03T23:46:16;102231.44;;;18.27;38.85
26563;BME280;14217;50.986;5.826;2023-04-03T23:51:18;102220.03;;;18.24;38.68
26563;BME280;14217;50.986;5.826;2023-04-03T23:56:21;102214.75;;;18.24;38.76
